sensor_id;sensor_type;location;lat;lon;timestamp;pressure;altitude;pressure_sealevel;temperature;humidity
42247;BME280;27913;42.722;23.268;2022-07-23T00:00:31;95295.06;;;24.16;47.58
42247;BME280;27913;42.722;23.268;2022-07-23T00:05:31;95212.00;;;23.67;47.60
42247;BME280;27913;42.722;23.268;2022-07-23T00:07:57;95221.16;;;23.61;47.50
42247;BME280;27913;42.722;23.268;2022-07-23T00:10:23;95244.78;;;23.74;47.11
42247;BME280;27913;42.722;23.268;2022-07-23T00:12:48;95278.13;;;23.99;47.09
42247;BME280;27913;42.722;23.268;2022-07-23T00:15:14;95276.50;;;23.98;47.56
42247;BME280;27913;42.722;23.268;2022-07-23T00:17:39;95277.59;;;23.97;47.81
42247;BME280;27913;42.722;23.268;2022-07-23T00:20:05;95265.22;;;23.75;48.27
42247;BME280;27913;42.722;23.268;2022-07-23T00:22:31;95300.91;;;23.86;47.73
42247;BME280;27913;42.722;23.268;2022-07-23T00:24:56;95315.91;;;23.61;47.29
42247;BME280;27913;42.722;23.268;2022-07-23T00:27:22;95240.19;;;23.00;48.00
42247;BME280;27913;42.722;23.268;2022-07-23T00:29:48;95309.91;;;23.44;47.77
42247;BME280;27913;42.722;23.268;2022-07-23T00:32:14;95305.22;;;23.23;47.45
42247;BME280;27913;42.722;23.268;2022-07-23T00:34:40;95212.53;;;22.46;48.19
42247;BME280;27913;42.722;23.268;2022-07-23T00:37:05;95266.09;;;22.79;48.00
42247;BME280;27913;42.722;23.268;2022-07-23T00:39:31;95242.06;;;22.56;48.53
42247;BME280;27913;42.722;23.268;2022-07-23T00:41:57;95266.88;;;22.74;48.48
42247;BME280;27913;42.722;23.268;2022-07-23T00:44:27;95310.75;;;23.06;48.11
42247;BME280;27913;42.722;23.268;2022-07-23T00:46:57;95263.75;;;22.93;47.92
42247;BME280;27913;42.722;23.268;2022-07-23T00:49:25;95273.25;;;23.11;47.26
42247;BME280;27913;42.722;23.268;2022-07-23T00:51:52;95249.88;;;23.01;47.36
42247;BME280;27913;42.722;23.268;2022-07-23T00:54:19;95301.53;;;23.35;47.39
42247;BME280;27913;42.722;23.268;2022-07-23T00:56:45;95305.06;;;23.46;46.78
42247;BME280;27913;42.722;23.268;2022-07-23T00:59:11;95184.84;;;22.68;47.64
42247;BME280;27913;42.722;23.268;2022-07-23T01:01:37;95287.31;;;23.34;47.10
42247;BME280;27913;42.722;23.268;2022-07-23T01:04:03;95193.44;;;22.70;47.34
42247;BME280;27913;42.722;23.268;2022-07-23T01:06:28;95309.88;;;23.38;48.05
42247;BME280;27913;42.722;23.268;2022-07-23T01:08:55;95308.22;;;23.32;48.22
42247;BME280;27913;42.722;23.268;2022-07-23T01:11:20;95232.34;;;22.83;47.98
42247;BME280;27913;42.722;23.268;2022-07-23T01:13:47;95255.44;;;22.89;48.08
42247;BME280;27913;42.722;23.268;2022-07-23T01:16:13;95305.72;;;23.15;48.72
42247;BME280;27913;42.722;23.268;2022-07-23T01:18:38;95302.41;;;22.97;48.95
42247;BME280;27913;42.722;23.268;2022-07-23T01:21:04;95264.38;;;22.62;48.88
42247;BME280;27913;42.722;23.268;2022-07-23T01:23:30;95276.31;;;22.49;49.59
42247;BME280;27913;42.722;23.268;2022-07-23T01:25:55;95296.28;;;22.64;49.52
42247;BME280;27913;42.722;23.268;2022-07-23T01:28:21;95212.19;;;21.99;49.76
42247;BME280;27913;42.722;23.268;2022-07-23T01:30:47;95303.19;;;22.60;49.82
42247;BME280;27913;42.722;23.268;2022-07-23T01:33:13;95295.41;;;22.58;49.99
42247;BME280;27913;42.722;23.268;2022-07-23T01:35:39;95296.09;;;22.43;50.44
42247;BME280;27913;42.722;23.268;2022-07-23T01:38:05;95298.47;;;22.39;50.27
42247;BME280;27913;42.722;23.268;2022-07-23T01:40:30;95302.41;;;22.31;50.53
42247;BME280;27913;42.722;23.268;2022-07-23T01:42:55;95281.47;;;22.23;50.63
42247;BME280;27913;42.722;23.268;2022-07-23T01:45:21;95277.34;;;22.10;50.85
42247;BME280;27913;42.722;23.268;2022-07-23T01:47:47;95232.09;;;21.81;50.93
42247;BME280;27913;42.722;23.268;2022-07-23T01:50:13;95289.19;;;22.19;51.12
42247;BME280;27913;42.722;23.268;2022-07-23T01:52:39;95236.28;;;21.99;50.85
42247;BME280;27913;42.722;23.268;2022-07-23T01:55:05;95291.78;;;22.37;50.71
42247;BME280;27913;42.722;23.268;2022-07-23T01:57:31;95244.88;;;22.01;50.77
42247;BME280;27913;42.722;23.268;2022-07-23T01:59:57;95219.78;;;21.80;51.34
42247;BME280;27913;42.722;23.268;2022-07-23T02:02:22;95254.09;;;21.88;51.54
42247;BME280;27913;42.722;23.268;2022-07-23T02:04:48;95256.84;;;21.93;51.62
42247;BME280;27913;42.722;23.268;2022-07-23T02:07:13;95295.06;;;22.16;51.47
42247;BME280;27913;42.722;23.268;2022-07-23T02:09:39;95303.56;;;22.08;52.05
42247;BME280;27913;42.722;23.268;2022-07-23T02:12:04;95302.09;;;21.95;52.34
42247;BME280;27913;42.722;23.268;2022-07-23T02:14:30;95246.13;;;21.43;52.94
42247;BME280;27913;42.722;23.268;2022-07-23T02:16:56;95260.00;;;21.40;53.35
42247;BME280;27913;42.722;23.268;2022-07-23T02:19:21;95301.22;;;21.67;53.47
42247;BME280;27913;42.722;23.268;2022-07-23T02:21:47;95195.59;;;20.97;53.50
42247;BME280;27913;42.722;23.268;2022-07-23T02:24:13;95302.53;;;21.64;53.53
42247;BME280;27913;42.722;23.268;2022-07-23T02:26:38;95299.69;;;21.48;53.86
42247;BME280;27913;42.722;23.268;2022-07-23T02:29:04;95305.53;;;21.45;53.95
42247;BME280;27913;42.722;23.268;2022-07-23T02:31:30;95303.84;;;21.39;54.29
42247;BME280;27913;42.722;23.268;2022-07-23T02:33:55;95305.72;;;21.39;54.18
42247;BME280;27913;42.722;23.268;2022-07-23T02:36:21;95257.56;;;20.94;54.56
42247;BME280;27913;42.722;23.268;2022-07-23T02:38:47;95309.75;;;21.19;54.51
42247;BME280;27913;42.722;23.268;2022-07-23T02:41:13;95303.34;;;21.20;54.36
42247;BME280;27913;42.722;23.268;2022-07-23T02:43:38;95271.88;;;21.05;54.35
42247;BME280;27913;42.722;23.268;2022-07-23T02:46:04;95249.03;;;20.97;54.46
42247;BME280;27913;42.722;23.268;2022-07-23T02:48:30;95253.22;;;21.10;54.33
42247;BME280;27913;42.722;23.268;2022-07-23T02:50:55;95306.16;;;21.30;54.26
42247;BME280;27913;42.722;23.268;2022-07-23T02:53:22;95271.50;;;20.96;54.85
42247;BME280;27913;42.722;23.268;2022-07-23T02:55:48;95279.09;;;20.87;54.88
42247;BME280;27913;42.722;23.268;2022-07-23T02:58:13;95319.56;;;21.13;55.04
42247;BME280;27913;42.722;23.268;2022-07-23T03:00:39;95211.09;;;20.38;55.17
42247;BME280;27913;42.722;23.268;2022-07-23T03:03:05;95323.53;;;20.93;55.50
42247;BME280;27913;42.722;23.268;2022-07-23T03:05:30;95291.25;;;20.60;55.91
42247;BME280;27913;42.722;23.268;2022-07-23T03:07:56;95292.88;;;20.61;56.24
42247;BME280;27913;42.722;23.268;2022-07-23T03:10:21;95324.03;;;20.90;56.05
42247;BME280;27913;42.722;23.268;2022-07-23T03:12:46;95335.22;;;20.87;56.41
42247;BME280;27913;42.722;23.268;2022-07-23T03:15:12;95323.38;;;20.83;56.13
42247;BME280;27913;42.722;23.268;2022-07-23T03:17:38;95305.09;;;20.74;56.25
42247;BME280;27913;42.722;23.268;2022-07-23T03:20:03;95340.56;;;21.04;56.20
42247;BME280;27913;42.722;23.268;2022-07-23T03:22:29;95341.22;;;21.11;56.08
42247;BME280;27913;42.722;23.268;2022-07-23T03:24:54;95297.72;;;20.99;54.50
42247;BME280;27913;42.722;23.268;2022-07-23T03:27:21;95340.97;;;21.35;54.31
42247;BME280;27913;42.722;23.268;2022-07-23T03:29:47;95345.75;;;21.33;54.58
42247;BME280;27913;42.722;23.268;2022-07-23T03:32:13;95339.19;;;21.41;54.61
42247;BME280;27913;42.722;23.268;2022-07-23T03:34:38;95288.25;;;21.08;54.91
42247;BME280;27913;42.722;23.268;2022-07-23T03:37:04;95351.44;;;21.37;55.60
42247;BME280;27913;42.722;23.268;2022-07-23T03:39:29;95349.88;;;21.41;54.95
42247;BME280;27913;42.722;23.268;2022-07-23T03:41:55;95254.41;;;20.80;54.65
42247;BME280;27913;42.722;23.268;2022-07-23T03:44:21;95295.25;;;21.15;54.39
42247;BME280;27913;42.722;23.268;2022-07-23T03:46:46;95351.19;;;21.39;54.76
42247;BME280;27913;42.722;23.268;2022-07-23T03:49:12;95351.56;;;21.47;54.70
42247;BME280;27913;42.722;23.268;2022-07-23T03:51:37;95344.34;;;21.48;54.63
42247;BME280;27913;42.722;23.268;2022-07-23T03:54:03;95312.06;;;21.32;54.70
42247;BME280;27913;42.722;23.268;2022-07-23T03:56:28;95345.16;;;21.48;54.83
42247;BME280;27913;42.722;23.268;2022-07-23T03:58:54;95344.72;;;21.34;54.98
42247;BME280;27913;42.722;23.268;2022-07-23T04:01:19;95347.47;;;21.40;55.10
42247;BME280;27913;42.722;23.268;2022-07-23T04:03:45;95346.16;;;21.42;55.27
42247;BME280;27913;42.722;23.268;2022-07-23T04:06:11;95261.25;;;20.93;54.88
42247;BME280;27913;42.722;23.268;2022-07-23T04:08:37;95345.56;;;21.40;55.00
42247;BME280;27913;42.722;23.268;2022-07-23T04:11:03;95353.00;;;21.33;55.41
42247;BME280;27913;42.722;23.268;2022-07-23T04:13:29;95354.03;;;21.32;55.03
42247;BME280;27913;42.722;23.268;2022-07-23T04:15:54;95330.91;;;21.20;55.25
42247;BME280;27913;42.722;23.268;2022-07-23T04:18:20;95279.56;;;20.84;55.45
42247;BME280;27913;42.722;23.268;2022-07-23T04:20:47;95297.72;;;20.82;55.51
42247;BME280;27913;42.722;23.268;2022-07-23T04:23:13;95352.69;;;21.12;55.56
42247;BME280;27913;42.722;23.268;2022-07-23T04:25:38;95241.81;;;20.40;55.63
42247;BME280;27913;42.722;23.268;2022-07-23T04:28:06;95355.53;;;21.22;55.57
42247;BME280;27913;42.722;23.268;2022-07-23T04:30:34;95327.97;;;21.22;54.87
42247;BME280;27913;42.722;23.268;2022-07-23T04:32:59;95357.28;;;21.56;54.10
42247;BME280;27913;42.722;23.268;2022-07-23T04:35:25;95309.06;;;21.29;54.20
42247;BME280;27913;42.722;23.268;2022-07-23T04:37:51;95358.47;;;21.66;54.03
42247;BME280;27913;42.722;23.268;2022-07-23T04:40:16;95329.78;;;21.39;54.16
42247;BME280;27913;42.722;23.268;2022-07-23T04:42:41;95367.31;;;21.66;54.01
42247;BME280;27913;42.722;23.268;2022-07-23T04:45:07;95359.50;;;21.82;53.54
42247;BME280;27913;42.722;23.268;2022-07-23T04:47:33;95261.19;;;21.27;53.25
42247;BME280;27913;42.722;23.268;2022-07-23T04:49:58;95354.63;;;22.01;52.81
42247;BME280;27913;42.722;23.268;2022-07-23T04:52:24;95214.22;;;21.14;52.67
42247;BME280;27913;42.722;23.268;2022-07-23T04:54:50;95217.78;;;21.20;52.70
42247;BME280;27913;42.722;23.268;2022-07-23T04:57:15;95364.75;;;22.22;52.07
42247;BME280;27913;42.722;23.268;2022-07-23T04:59:41;95370.41;;;22.25;52.17
42247;BME280;27913;42.722;23.268;2022-07-23T05:02:06;95365.69;;;22.38;51.66
42247;BME280;27913;42.722;23.268;2022-07-23T05:04:32;95354.13;;;22.32;51.85
42247;BME280;27913;42.722;23.268;2022-07-23T05:06:57;95338.25;;;22.25;51.70
42247;BME280;27913;42.722;23.268;2022-07-23T05:09:23;95361.50;;;22.47;51.82
42247;BME280;27913;42.722;23.268;2022-07-23T05:11:49;95304.94;;;22.16;51.76
42247;BME280;27913;42.722;23.268;2022-07-23T05:14:15;95216.94;;;21.64;52.36
42247;BME280;27913;42.722;23.268;2022-07-23T05:16:40;95362.34;;;22.53;52.01
42247;BME280;27913;42.722;23.268;2022-07-23T05:19:06;95262.69;;;21.90;52.57
42247;BME280;27913;42.722;23.268;2022-07-23T05:21:32;95233.91;;;21.75;52.99
42247;BME280;27913;42.722;23.268;2022-07-23T05:23:58;95238.31;;;21.87;52.39
42247;BME280;27913;42.722;23.268;2022-07-23T05:26:23;95362.06;;;22.77;52.32
42247;BME280;27913;42.722;23.268;2022-07-23T05:28:50;95303.88;;;22.44;52.24
42247;BME280;27913;42.722;23.268;2022-07-23T05:31:15;95369.63;;;22.85;52.46
42247;BME280;27913;42.722;23.268;2022-07-23T05:33:41;95368.66;;;23.02;53.19
42247;BME280;27913;42.722;23.268;2022-07-23T05:36:07;95372.41;;;23.01;52.70
42247;BME280;27913;42.722;23.268;2022-07-23T05:38:32;95348.16;;;22.85;52.42
42247;BME280;27913;42.722;23.268;2022-07-23T05:40:58;95313.97;;;22.65;53.30
42247;BME280;27913;42.722;23.268;2022-07-23T05:43:24;95367.56;;;22.98;52.85
42247;BME280;27913;42.722;23.268;2022-07-23T05:45:50;95360.59;;;23.02;52.80
42247;BME280;27913;42.722;23.268;2022-07-23T05:48:16;95367.94;;;23.12;52.58
42247;BME280;27913;42.722;23.268;2022-07-23T05:50:41;95357.19;;;23.12;52.22
42247;BME280;27913;42.722;23.268;2022-07-23T05:53:07;95307.66;;;22.82;52.06
42247;BME280;27913;42.722;23.268;2022-07-23T05:55:32;95353.75;;;23.22;51.40
42247;BME280;27913;42.722;23.268;2022-07-23T05:57:58;95338.44;;;23.17;51.08
42247;BME280;27913;42.722;23.268;2022-07-23T06:00:25;95297.88;;;23.03;51.37
42247;BME280;27913;42.722;23.268;2022-07-23T06:02:51;95303.25;;;23.03;50.73
42247;BME280;27913;42.722;23.268;2022-07-23T06:05:17;95366.03;;;23.56;50.30
42247;BME280;27913;42.722;23.268;2022-07-23T06:07:43;95362.84;;;23.64;49.73
42247;BME280;27913;42.722;23.268;2022-07-23T06:10:09;95356.66;;;23.63;50.06
42247;BME280;27913;42.722;23.268;2022-07-23T06:12:35;95363.63;;;23.54;50.93
42247;BME280;27913;42.722;23.268;2022-07-23T06:15:01;95363.38;;;23.56;50.30
42247;BME280;27913;42.722;23.268;2022-07-23T06:17:26;95367.44;;;23.69;50.46
42247;BME280;27913;42.722;23.268;2022-07-23T06:19:53;95287.78;;;23.21;49.77
42247;BME280;27913;42.722;23.268;2022-07-23T06:22:18;95372.28;;;23.67;50.09
42247;BME280;27913;42.722;23.268;2022-07-23T06:24:44;95362.56;;;23.60;49.75
42247;BME280;27913;42.722;23.268;2022-07-23T06:27:09;95365.25;;;23.60;50.32
42247;BME280;27913;42.722;23.268;2022-07-23T06:29:35;95353.47;;;23.61;50.33
42247;BME280;27913;42.722;23.268;2022-07-23T06:32:00;95356.47;;;23.70;49.74
42247;BME280;27913;42.722;23.268;2022-07-23T06:34:26;95292.75;;;23.45;49.13
42247;BME280;27913;42.722;23.268;2022-07-23T06:36:52;95358.69;;;23.94;48.88
42247;BME280;27913;42.722;23.268;2022-07-23T06:39:17;95355.19;;;23.94;48.55
42247;BME280;27913;42.722;23.268;2022-07-23T06:41:43;95359.44;;;23.84;48.70
42247;BME280;27913;42.722;23.268;2022-07-23T06:44:09;95359.19;;;23.86;49.09
42247;BME280;27913;42.722;23.268;2022-07-23T06:46:34;95307.84;;;23.61;48.72
42247;BME280;27913;42.722;23.268;2022-07-23T06:49:00;95321.81;;;23.74;48.29
42247;BME280;27913;42.722;23.268;2022-07-23T06:51:25;95350.91;;;24.03;48.21
42247;BME280;27913;42.722;23.268;2022-07-23T06:53:51;95353.34;;;24.15;48.25
42247;BME280;27913;42.722;23.268;2022-07-23T06:56:16;95317.06;;;24.07;48.54
42247;BME280;27913;42.722;23.268;2022-07-23T06:58:42;95218.16;;;23.52;48.46
42247;BME280;27913;42.722;23.268;2022-07-23T07:01:08;95317.16;;;24.33;48.00
42247;BME280;27913;42.722;23.268;2022-07-23T07:03:33;95327.91;;;24.49;47.30
42247;BME280;27913;42.722;23.268;2022-07-23T07:05:59;95343.78;;;24.71;46.99
42247;BME280;27913;42.722;23.268;2022-07-23T07:08:24;95199.16;;;23.85;46.44
42247;BME280;27913;42.722;23.268;2022-07-23T07:10:50;95269.56;;;24.39;46.02
42247;BME280;27913;42.722;23.268;2022-07-23T07:13:16;95339.72;;;24.84;46.40
42247;BME280;27913;42.722;23.268;2022-07-23T07:15:41;95249.16;;;24.33;46.07
42247;BME280;27913;42.722;23.268;2022-07-23T07:18:07;95332.47;;;24.95;46.09
42247;BME280;27913;42.722;23.268;2022-07-23T07:20:32;95309.34;;;24.89;46.38
42247;BME280;27913;42.722;23.268;2022-07-23T07:22:58;95328.16;;;25.05;45.74
42247;BME280;27913;42.722;23.268;2022-07-23T07:25:24;95325.75;;;25.08;45.98
42247;BME280;27913;42.722;23.268;2022-07-23T07:27:49;95322.75;;;25.15;45.39
42247;BME280;27913;42.722;23.268;2022-07-23T07:30:15;95318.97;;;25.21;45.19
42247;BME280;27913;42.722;23.268;2022-07-23T07:32:41;95312.53;;;25.23;45.49
42247;BME280;27913;42.722;23.268;2022-07-23T07:35:07;95320.56;;;25.38;45.63
42247;BME280;27913;42.722;23.268;2022-07-23T07:37:32;95316.22;;;25.48;45.29
42247;BME280;27913;42.722;23.268;2022-07-23T07:39:58;95288.28;;;25.33;44.52
42247;BME280;27913;42.722;23.268;2022-07-23T07:42:24;95240.72;;;25.13;43.68
42247;BME280;27913;42.722;23.268;2022-07-23T07:44:49;95283.66;;;25.44;43.95
42247;BME280;27913;42.722;23.268;2022-07-23T07:47:15;95294.09;;;25.56;43.71
42247;BME280;27913;42.722;23.268;2022-07-23T07:49:43;95314.22;;;25.74;42.92
42247;BME280;27913;42.722;23.268;2022-07-23T07:52:09;95316.91;;;25.79;42.86
42247;BME280;27913;42.722;23.268;2022-07-23T07:54:35;95308.00;;;25.84;43.18
42247;BME280;27913;42.722;23.268;2022-07-23T07:57:01;95283.53;;;25.75;42.77
42247;BME280;27913;42.722;23.268;2022-07-23T07:59:27;95305.53;;;25.93;42.40
42247;BME280;27913;42.722;23.268;2022-07-23T08:01:52;95188.22;;;25.20;42.78
42247;BME280;27913;42.722;23.268;2022-07-23T08:04:18;95277.28;;;25.85;42.77
42247;BME280;27913;42.722;23.268;2022-07-23T08:06:44;95254.72;;;25.81;42.65
42247;BME280;27913;42.722;23.268;2022-07-23T08:09:09;95306.16;;;26.25;42.43
42247;BME280;27913;42.722;23.268;2022-07-23T08:11:35;95209.22;;;25.74;42.21
42247;BME280;27913;42.722;23.268;2022-07-23T08:14:01;95303.38;;;26.40;41.67
42247;BME280;27913;42.722;23.268;2022-07-23T08:16:26;95295.00;;;26.42;42.61
42247;BME280;27913;42.722;23.268;2022-07-23T08:18:52;95298.69;;;26.51;41.94
42247;BME280;27913;42.722;23.268;2022-07-23T08:21:18;95303.53;;;26.55;41.79
42247;BME280;27913;42.722;23.268;2022-07-23T08:23:43;95293.22;;;26.62;41.22
42247;BME280;27913;42.722;23.268;2022-07-23T08:26:09;95280.81;;;26.61;41.34
42247;BME280;27913;42.722;23.268;2022-07-23T08:28:35;95270.56;;;26.63;41.70
42247;BME280;27913;42.722;23.268;2022-07-23T08:31:00;95276.38;;;26.75;41.18
42247;BME280;27913;42.722;23.268;2022-07-23T08:33:28;95296.47;;;26.88;41.58
42247;BME280;27913;42.722;23.268;2022-07-23T08:35:53;95294.28;;;26.90;40.66
42247;BME280;27913;42.722;23.268;2022-07-23T08:38:21;95272.28;;;26.78;41.20
42247;BME280;27913;42.722;23.268;2022-07-23T08:40:49;95218.84;;;26.56;40.68
42247;BME280;27913;42.722;23.268;2022-07-23T08:43:19;95178.63;;;26.35;40.43
42247;BME280;27913;42.722;23.268;2022-07-23T08:45:50;95282.53;;;27.11;40.39
42247;BME280;27913;42.722;23.268;2022-07-23T08:48:18;95256.13;;;27.02;40.96
42247;BME280;27913;42.722;23.268;2022-07-23T08:50:49;95230.38;;;26.91;40.28
42247;BME280;27913;42.722;23.268;2022-07-23T08:53:16;95255.97;;;27.18;40.40
42247;BME280;27913;42.722;23.268;2022-07-23T08:55:46;95222.66;;;27.09;40.00
42247;BME280;27913;42.722;23.268;2022-07-23T08:58:13;95276.13;;;27.50;39.75
42247;BME280;27913;42.722;23.268;2022-07-23T09:00:39;95280.16;;;27.53;39.54
42247;BME280;27913;42.722;23.268;2022-07-23T09:03:05;95282.78;;;27.58;39.70
42247;BME280;27913;42.722;23.268;2022-07-23T09:05:30;95204.38;;;27.25;39.42
42247;BME280;27913;42.722;23.268;2022-07-23T09:08:07;95213.94;;;27.36;38.98
42247;BME280;27913;42.722;23.268;2022-07-23T09:10:58;95274.66;;;27.83;38.43
42247;BME280;27913;42.722;23.268;2022-07-23T09:16:09;95270.34;;;28.01;37.73
42247;BME280;27913;42.722;23.268;2022-07-23T09:18:47;95262.53;;;28.00;37.87
42247;BME280;27913;42.722;23.268;2022-07-23T09:23:48;95273.47;;;28.28;37.99
42247;BME280;27913;42.722;23.268;2022-07-23T09:26:23;95254.63;;;28.22;37.70
42247;BME280;27913;42.722;23.268;2022-07-23T09:28:55;95123.13;;;27.46;37.49
42247;BME280;27913;42.722;23.268;2022-07-23T09:31:22;95270.34;;;28.40;36.80
42247;BME280;27913;42.722;23.268;2022-07-23T09:33:48;95160.78;;;27.76;35.93
42247;BME280;27913;42.722;23.268;2022-07-23T09:36:13;95269.50;;;28.58;35.88
42247;BME280;27913;42.722;23.268;2022-07-23T09:38:50;95179.63;;;28.14;35.28
42247;BME280;27913;42.722;23.268;2022-07-23T09:41:16;95152.78;;;28.04;34.97
42247;BME280;27913;42.722;23.268;2022-07-23T09:43:42;95236.34;;;28.67;35.15
42247;BME280;27913;42.722;23.268;2022-07-23T09:46:19;95250.50;;;28.78;34.72
42247;BME280;27913;42.722;23.268;2022-07-23T09:48:46;95243.88;;;28.84;35.00
42247;BME280;27913;42.722;23.268;2022-07-23T09:51:11;95244.09;;;28.88;34.92
42247;BME280;27913;42.722;23.268;2022-07-23T09:53:38;95246.22;;;29.05;33.84
42247;BME280;27913;42.722;23.268;2022-07-23T09:56:04;95123.03;;;28.37;33.48
42247;BME280;27913;42.722;23.268;2022-07-23T09:58:31;95236.41;;;29.23;32.84
42247;BME280;27913;42.722;23.268;2022-07-23T10:00:58;95210.22;;;29.18;32.63
42247;BME280;27913;42.722;23.268;2022-07-23T10:03:24;95126.75;;;28.69;32.28
42247;BME280;27913;42.722;23.268;2022-07-23T10:05:50;95147.50;;;28.88;31.83
42247;BME280;27913;42.722;23.268;2022-07-23T10:08:18;95203.31;;;29.40;30.68
42247;BME280;27913;42.722;23.268;2022-07-23T10:10:46;95121.94;;;29.09;30.98
42247;BME280;27913;42.722;23.268;2022-07-23T10:13:14;95199.25;;;29.66;30.76
42247;BME280;27913;42.722;23.268;2022-07-23T10:15:40;95218.97;;;29.81;29.46
42247;BME280;27913;42.722;23.268;2022-07-23T10:18:07;95174.41;;;29.50;29.16
42247;BME280;27913;42.722;23.268;2022-07-23T10:20:35;95169.66;;;29.56;28.75
42247;BME280;27913;42.722;23.268;2022-07-23T10:23:18;95215.13;;;29.96;28.98
42247;BME280;27913;42.722;23.268;2022-07-23T10:25:51;95174.16;;;29.74;28.99
42247;BME280;27913;42.722;23.268;2022-07-23T10:36:47;95207.38;;;30.26;26.97
42247;BME280;27913;42.722;23.268;2022-07-23T10:39:17;95181.31;;;30.16;26.72
42247;BME280;27913;42.722;23.268;2022-07-23T10:41:44;95170.59;;;30.11;26.74
42247;BME280;27913;42.722;23.268;2022-07-23T10:46:59;95196.09;;;30.33;26.46
42247;BME280;27913;42.722;23.268;2022-07-23T10:49:30;95163.72;;;30.13;26.70
42247;BME280;27913;42.722;23.268;2022-07-23T10:54:51;95185.44;;;30.36;25.88
42247;BME280;27913;42.722;23.268;2022-07-23T10:57:26;95163.59;;;30.42;24.89
42247;BME280;27913;42.722;23.268;2022-07-23T11:02:35;95184.47;;;30.64;22.81
42247;BME280;27913;42.722;23.268;2022-07-23T11:05:04;95179.84;;;30.73;22.65
42247;BME280;27913;42.722;23.268;2022-07-23T11:07:29;95174.94;;;30.76;22.50
42247;BME280;27913;42.722;23.268;2022-07-23T11:09:55;95142.75;;;30.83;22.56
42247;BME280;27913;42.722;23.268;2022-07-23T11:15:03;95151.13;;;31.13;22.66
42247;BME280;27913;42.722;23.268;2022-07-23T11:17:32;95160.88;;;31.23;22.58
42247;BME280;27913;42.722;23.268;2022-07-23T11:25:08;95131.81;;;31.15;22.77
42247;BME280;27913;42.722;23.268;2022-07-23T11:27:38;95136.28;;;31.28;22.06
42247;BME280;27913;42.722;23.268;2022-07-23T11:30:06;95138.06;;;31.42;22.06
42247;BME280;27913;42.722;23.268;2022-07-23T11:32:40;95119.88;;;31.51;22.03
42247;BME280;27913;42.722;23.268;2022-07-23T11:35:23;95153.28;;;31.78;21.12
42247;BME280;27913;42.722;23.268;2022-07-23T11:37:50;95146.69;;;31.97;21.19
42247;BME280;27913;42.722;23.268;2022-07-23T11:40:19;95115.84;;;31.93;20.85
42247;BME280;27913;42.722;23.268;2022-07-23T11:42:59;95144.88;;;32.28;20.11
42247;BME280;27913;42.722;23.268;2022-07-23T11:45:33;95147.59;;;32.37;19.69
42247;BME280;27913;42.722;23.268;2022-07-23T11:47:59;95111.81;;;32.26;18.85
42247;BME280;27913;42.722;23.268;2022-07-23T11:50:25;95031.25;;;31.86;18.67
42247;BME280;27913;42.722;23.268;2022-07-23T11:52:52;95106.78;;;32.37;18.65
42247;BME280;27913;42.722;23.268;2022-07-23T11:55:18;95119.84;;;32.52;18.57
42247;BME280;27913;42.722;23.268;2022-07-23T11:57:45;95070.06;;;32.22;18.57
42247;BME280;27913;42.722;23.268;2022-07-23T12:00:19;95085.81;;;32.37;17.96
42247;BME280;27913;42.722;23.268;2022-07-23T12:02:53;95059.28;;;32.34;17.85
42247;BME280;27913;42.722;23.268;2022-07-23T12:05:25;95064.31;;;32.53;18.53
42247;BME280;27913;42.722;23.268;2022-07-23T12:07:52;95120.19;;;32.90;16.10
42247;BME280;27913;42.722;23.268;2022-07-23T12:10:26;95100.69;;;32.79;16.79
42247;BME280;27913;42.722;23.268;2022-07-23T12:12:54;95076.25;;;32.70;16.41
42247;BME280;27913;42.722;23.268;2022-07-23T12:15:23;95057.06;;;32.66;16.42
42247;BME280;27913;42.722;23.268;2022-07-23T12:17:50;95069.78;;;32.84;15.77
42247;BME280;27913;42.722;23.268;2022-07-23T12:20:19;95047.25;;;32.74;16.73
42247;BME280;27913;42.722;23.268;2022-07-23T12:22:47;95094.59;;;33.12;17.55
42247;BME280;27913;42.722;23.268;2022-07-23T12:25:24;95087.84;;;33.19;17.43
42247;BME280;27913;42.722;23.268;2022-07-23T12:28:08;95110.56;;;33.44;16.99
42247;BME280;27913;42.722;23.268;2022-07-23T12:30:45;95066.06;;;33.40;17.23
42247;BME280;27913;42.722;23.268;2022-07-23T12:33:14;95079.53;;;33.58;17.24
42247;BME280;27913;42.722;23.268;2022-07-23T12:35:45;95042.31;;;33.41;16.98
42247;BME280;27913;42.722;23.268;2022-07-23T12:38:13;95090.88;;;33.81;17.95
42247;BME280;27913;42.722;23.268;2022-07-23T12:40:45;95090.09;;;33.93;18.26
42247;BME280;27913;42.722;23.268;2022-07-23T12:43:23;95042.44;;;33.66;17.05
42247;BME280;27913;42.722;23.268;2022-07-23T12:46:06;95089.00;;;33.94;16.92
42247;BME280;27913;42.722;23.268;2022-07-23T12:48:34;95040.56;;;33.79;16.73
42247;BME280;27913;42.722;23.268;2022-07-23T12:51:36;95078.94;;;34.20;17.20
42247;BME280;27913;42.722;23.268;2022-07-23T12:53:58;95030.94;;;34.06;17.00
42247;BME280;27913;42.722;23.268;2022-07-23T12:56:32;95077.47;;;34.47;16.25
42247;BME280;27913;42.722;23.268;2022-07-23T12:59:05;94971.75;;;34.07;16.40
42247;BME280;27913;42.722;23.268;2022-07-23T13:01:37;95050.88;;;34.57;16.11
42247;BME280;27913;42.722;23.268;2022-07-23T13:04:14;95015.97;;;34.38;15.47
42247;BME280;27913;42.722;23.268;2022-07-23T13:06:45;95026.66;;;34.43;15.50
42247;BME280;27913;42.722;23.268;2022-07-23T13:09:17;95049.84;;;34.62;15.45
42247;BME280;27913;42.722;23.268;2022-07-23T13:11:44;95013.72;;;34.52;15.58
42247;BME280;27913;42.722;23.268;2022-07-23T13:14:11;95041.91;;;34.81;14.88
42247;BME280;27913;42.722;23.268;2022-07-23T13:16:38;95069.63;;;35.09;13.99
42247;BME280;27913;42.722;23.268;2022-07-23T13:19:05;95013.91;;;34.85;14.15
42247;BME280;27913;42.722;23.268;2022-07-23T13:21:31;95070.16;;;35.14;14.24